createdAt,value
2023-02-12T00:01:15.914Z,4.80
2023-02-12T00:03:42.596Z,4.80
2023-02-12T00:06:10.279Z,4.70
2023-02-12T00:08:38.293Z,4.80
2023-02-12T00:11:14.799Z,4.70
2023-02-12T00:13:41.891Z,4.70
2023-02-12T00:16:11.942Z,4.70
2023-02-12T00:18:38.724Z,4.60
2023-02-12T00:21:08.689Z,4.60
2023-02-12T00:23:38.847Z,4.60
2023-02-12T00:26:14.108Z,4.60
2023-02-12T00:28:41.128Z,4.60
2023-02-12T00:31:13.984Z,4.60
2023-02-12T00:33:40.927Z,4.60
2023-02-12T00:36:09.464Z,4.60
2023-02-12T00:38:36.072Z,4.60
2023-02-12T00:41:02.707Z,4.60
2023-02-12T00:43:29.277Z,4.60
2023-02-12T00:45:56.304Z,4.60
2023-02-12T00:48:23.180Z,4.60
2023-02-12T00:50:50.823Z,4.60
2023-02-12T00:53:17.797Z,4.60
2023-02-12T00:55:44.361Z,4.60
2023-02-12T00:58:11.411Z,4.60
2023-02-12T01:00:38.814Z,4.60
2023-02-12T01:03:05.620Z,4.60
2023-02-12T01:05:32.566Z,4.60
2023-02-12T01:07:59.467Z,4.60
2023-02-12T01:10:26.746Z,4.60
2023-02-12T01:12:53.356Z,4.60
2023-02-12T01:15:20.362Z,4.70
2023-02-12T01:17:47.456Z,4.70
2023-02-12T01:20:17.619Z,4.60
2023-02-12T01:22:44.964Z,4.60
2023-02-12T01:25:12.149Z,4.70
2023-02-12T01:27:39.043Z,4.70
2023-02-12T01:30:07.500Z,4.60
2023-02-12T01:32:34.751Z,4.60
2023-02-12T01:35:01.745Z,4.60
2023-02-12T01:37:28.319Z,4.70
2023-02-12T01:39:54.937Z,4.70
2023-02-12T01:42:21.572Z,4.70
2023-02-12T01:45:30.447Z,4.70
2023-02-12T01:48:00.386Z,4.80
2023-02-12T01:50:27.005Z,4.80
2023-02-12T01:52:56.548Z,4.80
2023-02-12T01:55:23.462Z,4.80
2023-02-12T01:57:50.614Z,4.80
2023-02-12T02:00:22.352Z,4.80
2023-02-12T02:02:53.012Z,4.70
2023-02-12T02:05:31.845Z,4.80
2023-02-12T02:07:59.054Z,4.70
2023-02-12T02:10:25.600Z,4.70
2023-02-12T02:13:11.012Z,4.70
2023-02-12T02:15:39.755Z,4.60
2023-02-12T02:18:12.553Z,4.60
2023-02-12T02:20:51.448Z,4.60
2023-02-12T02:23:52.043Z,4.60
2023-02-12T02:26:46.803Z,4.60
2023-02-12T02:29:31.862Z,4.60
2023-02-12T02:32:18.745Z,4.60
2023-02-12T02:34:53.650Z,4.60
2023-02-12T02:37:29.905Z,4.50
2023-02-12T02:40:00.447Z,4.50
2023-02-12T02:43:03.035Z,4.50
2023-02-12T02:45:38.219Z,4.50
2023-02-12T02:48:26.922Z,4.40
2023-02-12T02:50:59.565Z,4.50
2023-02-12T02:53:33.530Z,4.50
2023-02-12T02:56:03.338Z,4.50
2023-02-12T02:58:41.031Z,4.50
2023-02-12T03:01:19.187Z,4.50
2023-02-12T03:03:59.663Z,4.50
2023-02-12T03:06:34.607Z,4.50
2023-02-12T03:09:09.554Z,4.50
2023-02-12T03:11:36.175Z,4.50
2023-02-12T03:14:36.728Z,4.50
2023-02-12T03:17:23.539Z,4.50
2023-02-12T03:20:38.873Z,4.50
2023-02-12T03:23:15.175Z,4.50
2023-02-12T03:25:57.078Z,4.50
2023-02-12T03:28:33.453Z,4.50
2023-02-12T03:31:16.494Z,4.50
2023-02-12T03:34:21.029Z,4.50
2023-02-12T03:37:00.943Z,4.50
2023-02-12T03:39:56.759Z,4.50
2023-02-12T03:42:38.596Z,4.50
2023-02-12T03:45:24.072Z,4.50
2023-02-12T03:48:08.744Z,4.50
2023-02-12T03:51:03.822Z,4.50
2023-02-12T03:53:32.248Z,4.50
2023-02-12T03:56:09.755Z,4.50
2023-02-12T03:58:38.623Z,4.50
2023-02-12T04:01:05.888Z,4.50
2023-02-12T04:03:33.805Z,4.50
2023-02-12T04:06:00.435Z,4.50
2023-02-12T04:08:28.204Z,4.50
2023-02-12T04:11:27.166Z,4.50
2023-02-12T04:14:14.982Z,4.50
2023-02-12T04:16:46.164Z,4.50
2023-02-12T04:19:20.305Z,4.50
2023-02-12T04:22:14.351Z,4.50
2023-02-12T04:24:55.462Z,4.60
2023-02-12T04:27:34.352Z,4.70
2023-02-12T04:30:24.984Z,4.70
2023-02-12T04:33:00.687Z,4.70
2023-02-12T04:35:31.482Z,4.70
2023-02-12T04:38:09.927Z,4.70
2023-02-12T04:40:40.122Z,4.70
2023-02-12T04:43:06.800Z,4.80
2023-02-12T04:45:35.631Z,4.80
2023-02-12T04:48:03.047Z,4.80
2023-02-12T04:50:39.665Z,4.70
2023-02-12T04:53:06.531Z,4.70
2023-02-12T04:55:33.147Z,4.70
2023-02-12T04:57:59.733Z,4.70
2023-02-12T05:00:26.866Z,4.70
2023-02-12T05:02:53.518Z,4.70
2023-02-12T05:05:20.334Z,4.60
2023-02-12T05:07:46.894Z,4.60
2023-02-12T05:10:13.522Z,4.60
2023-02-12T05:12:40.157Z,4.60
2023-02-12T05:15:07.163Z,4.60
2023-02-12T05:17:33.760Z,4.50
2023-02-12T05:20:00.325Z,4.50
2023-02-12T05:22:26.943Z,4.50
2023-02-12T05:24:53.534Z,4.50
2023-02-12T05:27:20.098Z,4.50
2023-02-12T05:29:46.636Z,4.40
2023-02-12T05:32:13.295Z,4.40
2023-02-12T05:34:40.088Z,4.40
2023-02-12T05:37:06.685Z,4.30
2023-02-12T05:39:33.249Z,4.30
2023-02-12T05:41:59.800Z,4.30
2023-02-12T05:44:26.389Z,4.30
2023-02-12T05:46:52.927Z,4.30
2023-02-12T05:49:19.807Z,4.30
2023-02-12T05:51:46.372Z,4.30
2023-02-12T05:54:13.044Z,4.30
2023-02-12T05:56:46.177Z,4.30
2023-02-12T05:59:16.918Z,4.30
2023-02-12T06:01:44.821Z,4.30
2023-02-12T06:04:17.211Z,4.30
2023-02-12T06:06:44.695Z,4.30
2023-02-12T06:09:13.353Z,4.30
2023-02-12T06:11:40.531Z,4.40
2023-02-12T06:14:09.338Z,4.40
2023-02-12T06:16:36.051Z,4.40
2023-02-12T06:19:05.390Z,4.40
2023-02-12T06:21:33.375Z,4.40
2023-02-12T06:24:00.378Z,4.40
2023-02-12T06:26:27.590Z,4.40
2023-02-12T06:28:54.687Z,4.40
2023-02-12T06:31:30.595Z,4.40
2023-02-12T06:34:00.117Z,4.40
2023-02-12T06:36:26.750Z,4.40
2023-02-12T06:38:53.469Z,4.40
2023-02-12T06:41:20.796Z,4.40
2023-02-12T06:43:47.700Z,4.40
2023-02-12T06:46:14.924Z,4.40
2023-02-12T06:48:41.865Z,4.50
2023-02-12T06:51:10.033Z,4.50
2023-02-12T06:53:36.892Z,4.50
2023-02-12T06:56:11.269Z,4.50
2023-02-12T06:58:39.325Z,4.50
2023-02-12T07:01:18.029Z,4.50
2023-02-12T07:03:48.840Z,4.50
2023-02-12T07:06:15.560Z,4.50
2023-02-12T07:08:42.177Z,4.50
2023-02-12T07:11:09.259Z,4.50
2023-02-12T07:13:36.032Z,4.60
2023-02-12T07:16:14.761Z,4.60
2023-02-12T07:18:42.938Z,4.60
2023-02-12T07:21:11.158Z,4.70
2023-02-12T07:23:38.088Z,4.70
2023-02-12T07:26:11.305Z,4.80
2023-02-12T07:28:38.242Z,4.80
2023-02-12T07:31:12.830Z,4.90
2023-02-12T07:33:40.909Z,4.90
2023-02-12T07:36:11.255Z,5.00
2023-02-12T07:38:39.654Z,5.10
2023-02-12T07:41:16.653Z,5.10
2023-02-12T07:43:45.656Z,5.20
2023-02-12T07:46:17.041Z,5.20
2023-02-12T07:48:44.700Z,5.30
2023-02-12T07:51:15.057Z,5.30
2023-02-12T07:53:42.188Z,5.30
2023-02-12T07:56:15.424Z,5.30
2023-02-12T07:58:45.052Z,5.40
2023-02-12T08:01:12.393Z,5.40
2023-02-12T08:03:39.242Z,5.40
2023-02-12T08:06:10.959Z,5.40
2023-02-12T08:08:38.841Z,5.40
2023-02-12T08:11:07.729Z,5.40
2023-02-12T08:13:35.781Z,5.50
2023-02-12T08:16:04.615Z,5.50
2023-02-12T08:18:35.032Z,5.60
2023-02-12T08:21:06.371Z,5.70
2023-02-12T08:23:34.023Z,5.80
2023-02-12T08:26:09.228Z,5.80
2023-02-12T08:28:36.891Z,5.90
2023-02-12T08:31:06.414Z,6.00
2023-02-12T08:33:33.103Z,6.10
2023-02-12T08:36:09.528Z,6.30
2023-02-12T08:38:36.418Z,6.30
2023-02-12T08:41:09.469Z,6.30
2023-02-12T08:43:36.733Z,6.20
2023-02-12T08:46:09.272Z,6.20
2023-02-12T08:48:36.001Z,6.20
2023-02-12T08:51:09.107Z,6.20
2023-02-12T08:53:37.103Z,6.20
2023-02-12T08:56:04.207Z,6.20
2023-02-12T08:58:31.041Z,6.40
2023-02-12T09:00:57.630Z,6.30
2023-02-12T09:03:24.860Z,6.30
2023-02-12T09:05:51.618Z,6.30
2023-02-12T09:08:18.356Z,6.50
2023-02-12T09:10:45.666Z,6.40
2023-02-12T09:13:14.031Z,6.50
2023-02-12T09:15:44.950Z,6.60
2023-02-12T09:18:13.545Z,6.80
2023-02-12T09:20:42.649Z,6.80
2023-02-12T09:23:14.201Z,6.80
2023-02-12T09:25:45.078Z,6.70
2023-02-12T09:28:13.937Z,6.70
2023-02-12T09:30:41.201Z,6.70
2023-02-12T09:33:09.846Z,6.90
2023-02-12T09:35:37.590Z,7.00
2023-02-12T09:38:05.589Z,7.20
2023-02-12T09:41:07.163Z,7.00
2023-02-12T09:43:52.841Z,7.20
2023-02-12T09:46:24.082Z,7.50
2023-02-12T09:49:23.540Z,7.60
2023-02-12T09:51:53.897Z,7.60
2023-02-12T09:54:29.104Z,7.70
2023-02-12T09:57:00.090Z,7.70
2023-02-12T09:59:33.483Z,7.90
2023-02-12T10:02:00.188Z,8.00
2023-02-12T10:04:28.782Z,8.00
2023-02-12T10:07:07.928Z,8.20
2023-02-12T10:09:58.520Z,8.40
2023-02-12T10:12:54.207Z,8.60
2023-02-12T10:15:45.465Z,8.30
2023-02-12T10:18:37.482Z,8.20
2023-02-12T10:21:10.769Z,8.20
2023-02-12T10:24:19.990Z,8.20
2023-02-12T10:26:52.177Z,8.00
2023-02-12T10:29:24.894Z,8.20
2023-02-12T10:32:07.833Z,8.40
2023-02-12T10:34:36.920Z,8.60
2023-02-12T10:37:32.544Z,8.60
2023-02-12T10:40:06.005Z,8.80
2023-02-12T10:42:40.829Z,8.80
2023-02-12T10:45:14.233Z,8.40
2023-02-12T10:47:40.835Z,8.10
2023-02-12T10:50:24.017Z,8.30
2023-02-12T10:52:55.929Z,8.10
2023-02-12T10:55:31.317Z,7.90
2023-02-12T10:57:59.443Z,8.10
2023-02-12T11:00:35.892Z,8.20
2023-02-12T11:03:21.322Z,8.00
2023-02-12T11:05:48.297Z,8.30
2023-02-12T11:08:33.727Z,8.60
2023-02-12T11:11:19.025Z,8.60
2023-02-12T11:14:16.197Z,8.60
2023-02-12T11:17:02.538Z,8.50
2023-02-12T11:19:31.293Z,8.00
2023-02-12T11:22:18.881Z,8.00
2023-02-12T11:24:46.983Z,8.20
2023-02-12T11:27:21.979Z,8.10
2023-02-12T11:30:07.416Z,8.40
2023-02-12T11:32:34.051Z,8.70
2023-02-12T11:35:23.613Z,8.70
2023-02-12T11:37:51.860Z,8.60
2023-02-12T11:40:26.000Z,8.60
2023-02-12T11:43:02.374Z,8.30
2023-02-12T11:45:46.273Z,8.40
2023-02-12T11:48:21.317Z,8.50
2023-02-12T11:50:50.941Z,8.60
2023-02-12T11:53:42.112Z,8.70
2023-02-12T11:56:12.010Z,8.60
2023-02-12T11:58:39.179Z,8.80
2023-02-12T12:01:30.043Z,9.00
2023-02-12T12:04:13.987Z,9.00
2023-02-12T12:06:48.801Z,9.10
2023-02-12T12:09:26.585Z,9.30
2023-02-12T12:12:21.927Z,9.50
2023-02-12T12:15:16.329Z,9.90
2023-02-12T12:18:19.002Z,10.00
2023-02-12T12:20:56.858Z,9.90
2023-02-12T12:23:35.179Z,9.70
2023-02-12T12:26:10.656Z,9.30
2023-02-12T12:28:47.779Z,9.50
2023-02-12T12:31:19.398Z,9.50
2023-02-12T12:34:07.350Z,9.40
2023-02-12T12:37:04.752Z,9.30
2023-02-12T12:39:45.875Z,9.50
2023-02-12T12:42:37.229Z,9.50
2023-02-12T12:45:18.971Z,9.70
2023-02-12T12:48:09.250Z,9.70
2023-02-12T12:51:00.525Z,9.70
2023-02-12T12:53:36.788Z,9.80
2023-02-12T12:56:27.563Z,9.60
2023-02-12T12:59:32.118Z,9.50
2023-02-12T13:02:38.223Z,9.50
2023-02-12T13:05:34.203Z,9.40
2023-02-12T13:08:15.833Z,9.30
2023-02-12T13:11:02.275Z,9.20
2023-02-12T13:13:39.672Z,9.10
2023-02-12T13:16:23.064Z,9.10
2023-02-12T13:19:06.536Z,9.40
2023-02-12T13:21:54.801Z,9.60
2023-02-12T13:24:37.126Z,9.60
2023-02-12T13:27:19.884Z,9.70
2023-02-12T13:30:19.287Z,9.40
2023-02-12T13:32:57.754Z,9.30
2023-02-12T13:35:28.517Z,9.30
2023-02-12T13:37:56.382Z,9.20
2023-02-12T13:40:26.815Z,9.30
2023-02-12T13:43:36.282Z,9.40
2023-02-12T13:46:33.259Z,9.30
2023-02-12T13:49:32.989Z,9.30
2023-02-12T13:52:14.284Z,9.40
2023-02-12T13:55:00.545Z,9.50
2023-02-12T13:57:28.460Z,9.50
2023-02-12T13:59:58.088Z,9.40
2023-02-12T14:02:36.230Z,9.30
2023-02-12T14:05:15.673Z,9.30
2023-02-12T14:07:51.704Z,9.30
2023-02-12T14:10:40.223Z,9.20
2023-02-12T14:13:22.799Z,9.30
2023-02-12T14:15:55.509Z,9.30
2023-02-12T14:18:33.084Z,9.20
2023-02-12T14:21:22.196Z,9.30
2023-02-12T14:23:51.014Z,9.30
2023-02-12T14:26:23.393Z,9.30
2023-02-12T14:29:02.971Z,9.30
2023-02-12T14:31:36.671Z,9.10
2023-02-12T14:34:06.402Z,9.20
2023-02-12T14:36:32.937Z,9.20
2023-02-12T14:39:01.458Z,9.10
2023-02-12T14:41:38.748Z,9.20
2023-02-12T14:44:17.537Z,9.20
2023-02-12T14:46:54.509Z,9.20
2023-02-12T14:49:30.039Z,9.20
2023-02-12T14:52:07.819Z,9.10
2023-02-12T14:54:42.254Z,9.10
2023-02-12T14:57:33.202Z,9.10
2023-02-12T15:00:20.569Z,9.10
2023-02-12T15:03:18.350Z,9.10
2023-02-12T15:06:02.725Z,9.00
2023-02-12T15:08:41.393Z,9.00
2023-02-12T15:11:17.064Z,8.90
2023-02-12T15:13:58.720Z,8.90
2023-02-12T15:16:34.498Z,8.90
2023-02-12T15:19:28.345Z,8.80
2023-02-12T15:21:55.054Z,8.80
2023-02-12T15:24:25.787Z,8.90
2023-02-12T15:26:58.269Z,9.10
2023-02-12T15:29:29.854Z,9.10
2023-02-12T15:32:02.128Z,8.90
2023-02-12T15:34:32.077Z,8.80
2023-02-12T15:37:01.479Z,8.60
2023-02-12T15:39:32.920Z,8.50
2023-02-12T15:41:59.481Z,8.50
2023-02-12T15:44:31.525Z,8.40
2023-02-12T15:47:13.792Z,8.30
2023-02-12T15:49:41.958Z,8.20
2023-02-12T15:52:16.536Z,8.10
2023-02-12T15:54:45.730Z,8.10
2023-02-12T15:57:18.622Z,8.10
2023-02-12T15:59:53.711Z,8.00
2023-02-12T16:02:25.524Z,8.00
2023-02-12T16:04:52.303Z,8.00
2023-02-12T16:07:19.917Z,8.00
2023-02-12T16:09:48.693Z,8.00
2023-02-12T16:12:20.179Z,8.00
2023-02-12T16:14:59.909Z,7.80
2023-02-12T16:17:29.645Z,7.70
2023-02-12T16:20:02.876Z,7.60
2023-02-12T16:22:41.407Z,7.50
2023-02-12T16:25:30.189Z,7.40
2023-02-12T16:28:05.023Z,7.30
2023-02-12T16:30:34.552Z,7.20
2023-02-12T16:33:02.249Z,7.00
2023-02-12T16:35:31.407Z,7.00
2023-02-12T16:38:02.015Z,6.90
2023-02-12T16:40:34.460Z,6.90
2023-02-12T16:43:22.770Z,7.00
2023-02-12T16:45:49.990Z,6.90
2023-02-12T16:48:26.541Z,6.80
2023-02-12T16:50:59.490Z,6.80
2023-02-12T16:53:33.330Z,6.70
2023-02-12T16:56:01.179Z,6.70
2023-02-12T16:58:28.587Z,6.60
2023-02-12T17:00:57.459Z,6.50
2023-02-12T17:03:24.958Z,6.50
2023-02-12T17:05:52.389Z,6.40
2023-02-12T17:08:22.505Z,6.40
2023-02-12T17:10:49.842Z,6.60
2023-02-12T17:13:17.657Z,6.50
2023-02-12T17:15:55.374Z,6.40
2023-02-12T17:18:23.130Z,6.20
2023-02-12T17:20:54.645Z,6.00
2023-02-12T17:23:21.537Z,6.00
2023-02-12T17:25:48.249Z,5.80
2023-02-12T17:28:15.052Z,5.70
2023-02-12T17:30:42.041Z,5.70
2023-02-12T17:33:09.085Z,5.60
2023-02-12T17:35:37.869Z,5.50
2023-02-12T17:38:04.905Z,5.50
2023-02-12T17:40:31.554Z,5.40
2023-02-12T17:42:59.003Z,5.40
2023-02-12T17:45:25.567Z,5.40
2023-02-12T17:47:52.163Z,5.30
2023-02-12T17:50:18.838Z,5.30
2023-02-12T17:52:46.170Z,5.20
2023-02-12T17:55:14.208Z,5.20
2023-02-12T17:57:41.185Z,5.30
2023-02-12T18:00:11.399Z,5.30
2023-02-12T18:02:38.649Z,5.20
2023-02-12T18:05:05.693Z,5.20
2023-02-12T18:07:33.900Z,5.10
2023-02-12T18:10:00.649Z,5.10
2023-02-12T18:12:27.226Z,5.00
2023-02-12T18:14:58.794Z,4.90
2023-02-12T18:17:25.950Z,4.80
2023-02-12T18:19:53.212Z,4.70
2023-02-12T18:22:20.858Z,4.70
2023-02-12T18:24:47.620Z,4.60
2023-02-12T18:27:15.340Z,4.50
2023-02-12T18:29:42.173Z,4.40
2023-02-12T18:32:08.765Z,4.30
2023-02-12T18:34:35.413Z,4.20
2023-02-12T18:37:01.957Z,4.10
2023-02-12T18:39:29.205Z,4.00
2023-02-12T18:41:55.839Z,4.00
2023-02-12T18:44:22.824Z,4.10
2023-02-12T18:46:49.451Z,4.10
2023-02-12T18:49:16.585Z,4.00
2023-02-12T18:51:43.434Z,3.90
2023-02-12T18:54:14.216Z,3.80
2023-02-12T18:56:44.105Z,3.80
2023-02-12T18:59:13.639Z,3.70
2023-02-12T19:01:40.317Z,3.60
2023-02-12T19:04:09.872Z,3.60
2023-02-12T19:06:42.248Z,3.60
2023-02-12T19:09:09.498Z,3.80
2023-02-12T19:11:36.347Z,3.80
2023-02-12T19:14:03.495Z,3.80
2023-02-12T19:16:30.473Z,3.90
2023-02-12T19:19:02.664Z,3.90
2023-02-12T19:21:30.014Z,3.70
2023-02-12T19:23:59.340Z,3.50
2023-02-12T19:26:28.795Z,3.30
2023-02-12T19:28:56.466Z,3.20
2023-02-12T19:31:26.317Z,3.00
2023-02-12T19:33:59.971Z,3.00
2023-02-12T19:36:29.025Z,3.10
2023-02-12T19:38:55.719Z,3.30
2023-02-12T19:41:24.725Z,3.40
2023-02-12T19:43:55.888Z,3.30
2023-02-12T19:46:22.573Z,3.10
2023-02-12T19:48:49.717Z,3.00
2023-02-12T19:51:21.055Z,3.00
2023-02-12T19:53:48.624Z,3.00
2023-02-12T19:56:16.074Z,3.10
2023-02-12T19:58:43.613Z,3.10
2023-02-12T20:01:16.839Z,3.00
2023-02-12T20:03:44.653Z,2.90
2023-02-12T20:06:14.983Z,2.70
2023-02-12T20:08:43.082Z,2.60
2023-02-12T20:11:13.722Z,2.50
2023-02-12T20:13:41.244Z,2.40
2023-02-12T20:16:15.959Z,2.30
2023-02-12T20:18:44.077Z,2.30
2023-02-12T20:21:13.094Z,2.40
2023-02-12T20:23:40.067Z,2.80
2023-02-12T20:26:09.108Z,3.10
2023-02-12T20:28:36.860Z,3.30
2023-02-12T20:31:18.994Z,3.10
2023-02-12T20:33:46.179Z,2.80
2023-02-12T20:36:13.889Z,2.70
2023-02-12T20:38:44.700Z,2.50
2023-02-12T20:41:11.970Z,2.50
2023-02-12T20:43:39.022Z,2.40
2023-02-12T20:46:06.877Z,2.30
2023-02-12T20:48:33.504Z,2.40
2023-02-12T20:51:05.679Z,2.20
2023-02-12T20:53:32.940Z,2.20
2023-02-12T20:56:05.346Z,2.10
2023-02-12T20:58:32.709Z,2.00
2023-02-12T21:01:23.958Z,1.90
2023-02-12T21:03:53.030Z,1.80
2023-02-12T21:06:21.300Z,1.70
2023-02-12T21:08:48.326Z,1.60
2023-02-12T21:11:18.209Z,1.60
2023-02-12T21:13:58.380Z,1.60
2023-02-12T21:16:32.558Z,1.60
2023-02-12T21:18:59.771Z,1.60
2023-02-12T21:21:31.122Z,1.60
2023-02-12T21:23:59.771Z,1.70
2023-02-12T21:26:29.019Z,1.60
2023-02-12T21:28:57.793Z,1.60
2023-02-12T21:31:28.230Z,1.60
2023-02-12T21:33:56.592Z,1.60
2023-02-12T21:36:29.197Z,1.50
2023-02-12T21:38:57.193Z,1.50
2023-02-12T21:41:25.055Z,1.40
2023-02-12T21:43:57.615Z,1.30
2023-02-12T21:46:24.392Z,1.30
2023-02-12T21:48:51.299Z,1.20
2023-02-12T21:51:30.077Z,1.10
2023-02-12T21:53:59.690Z,1.10
2023-02-12T21:56:27.324Z,1.00
2023-02-12T21:58:54.923Z,1.10
2023-02-12T22:01:29.878Z,1.10
2023-02-12T22:03:56.485Z,1.00
2023-02-12T22:06:24.646Z,0.90
2023-02-12T22:08:55.376Z,0.90
2023-02-12T22:11:22.790Z,0.80
2023-02-12T22:13:49.871Z,0.80
2023-02-12T22:16:26.666Z,0.80
2023-02-12T22:18:55.541Z,0.70
2023-02-12T22:21:23.873Z,0.70
2023-02-12T22:23:52.889Z,0.70
2023-02-12T22:26:23.181Z,0.60
2023-02-12T22:28:55.877Z,0.60
2023-02-12T22:31:25.866Z,0.50
2023-02-12T22:33:55.535Z,0.50
2023-02-12T22:36:24.957Z,0.50
2023-02-12T22:38:53.317Z,0.40
2023-02-12T22:41:20.692Z,0.40
2023-02-12T22:43:47.676Z,0.40
2023-02-12T22:46:15.659Z,0.40
2023-02-12T22:48:42.717Z,0.40
2023-02-12T22:51:17.604Z,0.40
2023-02-12T22:53:44.258Z,0.50
2023-02-12T22:56:11.153Z,0.50
2023-02-12T22:58:39.505Z,0.60
2023-02-12T23:01:13.523Z,0.60
2023-02-12T23:03:41.014Z,0.60
2023-02-12T23:06:11.644Z,0.50
2023-02-12T23:08:38.512Z,0.50
2023-02-12T23:11:07.192Z,0.50
2023-02-12T23:13:36.026Z,0.50
2023-02-12T23:16:03.098Z,0.80
2023-02-12T23:18:30.121Z,0.80
2023-02-12T23:20:57.070Z,0.60
2023-02-12T23:23:24.192Z,0.50
2023-02-12T23:25:50.873Z,0.50
2023-02-12T23:28:17.692Z,0.40
2023-02-12T23:30:44.407Z,0.30
2023-02-12T23:33:11.158Z,0.20
2023-02-12T23:35:38.457Z,0.10
2023-02-12T23:38:05.399Z,0.20
2023-02-12T23:40:33.437Z,0.30
2023-02-12T23:43:00.177Z,0.30
2023-02-12T23:45:28.032Z,0.30
2023-02-12T23:47:54.881Z,0.30
2023-02-12T23:50:22.218Z,0.30
2023-02-12T23:52:49.203Z,0.30
2023-02-12T23:55:16.296Z,0.20
2023-02-12T23:57:42.835Z,0.10
